createdAt,value
2018-11-20T00:02:00.234Z,160.40
2018-11-20T00:05:00.371Z,151.20
2018-11-20T00:08:00.297Z,161.70
2018-11-20T00:10:50.449Z,145.80
2018-11-20T00:13:50.519Z,144.83
2018-11-20T00:16:50.433Z,152.33
2018-11-20T00:19:44.797Z,168.23
2018-11-20T00:22:47.042Z,153.93
2018-11-20T00:25:52.931Z,153.13
2018-11-20T00:28:55.959Z,145.30
2018-11-20T00:31:56.054Z,138.23
2018-11-20T00:34:55.796Z,130.77
2018-11-20T00:37:51.655Z,134.03
2018-11-20T00:43:47.895Z,154.47
2018-11-20T00:46:47.929Z,143.50
2018-11-20T00:49:42.954Z,141.30
2018-11-20T00:52:42.833Z,139.90
2018-11-20T00:55:39.729Z,140.33
2018-11-20T00:58:39.720Z,133.23
2018-11-20T01:01:39.222Z,137.40
2018-11-20T01:04:39.463Z,135.37
2018-11-20T01:07:39.332Z,128.83
2018-11-20T01:10:38.841Z,129.17
2018-11-20T01:13:39.212Z,129.27
2018-11-20T01:16:39.312Z,127.90
2018-11-20T01:19:44.856Z,127.27
2018-11-20T01:22:44.499Z,136.50
2018-11-20T01:25:43.955Z,141.80
2018-11-20T01:28:44.224Z,129.63
2018-11-20T01:31:44.137Z,148.20
2018-11-20T01:34:44.648Z,146.33
2018-11-20T01:37:42.882Z,140.63
2018-11-20T01:40:36.559Z,140.47
2018-11-20T01:43:36.327Z,133.63
2018-11-20T01:46:33.535Z,138.27
2018-11-20T01:49:33.085Z,133.17
2018-11-20T01:52:30.345Z,134.03
2018-11-20T01:55:22.501Z,129.80
2018-11-20T01:58:29.811Z,122.63
2018-11-20T02:01:29.704Z,118.50
2018-11-20T02:04:35.242Z,118.77
2018-11-20T02:07:40.811Z,118.63
2018-11-20T02:10:40.776Z,123.87
2018-11-20T02:13:44.033Z,116.70
2018-11-20T02:16:43.899Z,120.70
2018-11-20T02:19:44.131Z,119.10
2018-11-20T02:22:40.924Z,116.07
2018-11-20T02:25:41.243Z,115.07
2018-11-20T02:28:41.334Z,111.03
2018-11-20T02:31:33.416Z,111.47
2018-11-20T02:34:33.668Z,110.13
2018-11-20T02:37:33.600Z,107.93
2018-11-20T02:40:26.664Z,107.07
2018-11-20T02:43:26.563Z,104.73
2018-11-20T02:46:26.440Z,100.17
2018-11-20T02:49:26.765Z,100.40
2018-11-20T02:52:26.273Z,101.27
2018-11-20T02:55:26.313Z,98.50
2018-11-20T02:58:26.401Z,99.00
2018-11-20T03:01:19.031Z,94.70
2018-11-20T03:04:18.517Z,94.97
2018-11-20T03:07:13.902Z,90.77
2018-11-20T03:10:17.204Z,92.17
2018-11-20T03:13:09.318Z,89.87
2018-11-20T03:16:14.871Z,87.50
2018-11-20T03:19:17.807Z,87.77
2018-11-20T03:22:18.093Z,89.87
2018-11-20T03:25:23.737Z,87.33
2018-11-20T03:28:24.001Z,84.10
2018-11-20T03:31:13.455Z,82.87
2018-11-20T03:34:13.531Z,85.10
2018-11-20T03:37:13.601Z,81.20
2018-11-20T03:40:13.314Z,80.80
2018-11-20T03:43:13.265Z,79.73
2018-11-20T03:46:12.728Z,77.40
2018-11-20T03:49:12.598Z,77.20
2018-11-20T03:52:12.636Z,75.83
2018-11-20T03:55:12.536Z,75.07
2018-11-20T03:58:09.983Z,74.00
2018-11-20T04:01:12.992Z,73.90
2018-11-20T04:04:12.269Z,71.17
2018-11-20T04:07:18.357Z,71.07
2018-11-20T04:10:18.474Z,69.13
2018-11-20T04:13:18.562Z,67.17
2018-11-20T04:16:07.309Z,67.47
2018-11-20T04:19:07.619Z,67.00
2018-11-20T04:22:07.395Z,66.57
2018-11-20T04:25:07.865Z,64.00
2018-11-20T04:28:08.058Z,64.07
2018-11-20T04:31:00.151Z,64.77
2018-11-20T04:33:59.626Z,62.90
2018-11-20T04:37:02.797Z,62.40
2018-11-20T04:40:02.508Z,61.57
2018-11-20T04:42:54.800Z,60.97
2018-11-20T04:46:00.237Z,59.50
2018-11-20T04:48:55.953Z,59.00
2018-11-20T04:51:50.716Z,58.90
2018-11-20T04:54:50.886Z,58.03
2018-11-20T04:57:50.340Z,59.37
2018-11-20T05:00:50.455Z,56.43
2018-11-20T05:03:50.173Z,54.73
2018-11-20T05:06:55.962Z,57.03
2018-11-20T05:09:55.425Z,54.83
2018-11-20T05:12:55.614Z,53.70
2018-11-20T05:15:55.852Z,52.57
2018-11-20T05:18:55.819Z,52.70
2018-11-20T05:22:01.462Z,51.10
2018-11-20T05:25:01.451Z,51.63
2018-11-20T05:28:01.103Z,51.33
2018-11-20T05:31:01.122Z,50.23
2018-11-20T05:34:00.524Z,49.83
2018-11-20T05:36:52.541Z,48.43
2018-11-20T05:39:52.730Z,47.10
2018-11-20T05:42:53.064Z,48.80
2018-11-20T05:45:55.332Z,48.03
2018-11-20T05:48:55.012Z,47.23
2018-11-20T05:51:54.549Z,46.87
2018-11-20T05:54:54.646Z,47.87
2018-11-20T05:57:51.512Z,43.87
2018-11-20T06:00:44.237Z,43.73
2018-11-20T06:03:44.422Z,42.93
2018-11-20T06:06:44.242Z,44.83
2018-11-20T06:09:50.077Z,42.57
2018-11-20T06:12:49.559Z,43.27
2018-11-20T06:15:48.869Z,42.03
2018-11-20T06:18:54.176Z,43.00
2018-11-20T06:21:45.442Z,42.73
2018-11-20T06:24:44.760Z,41.67
2018-11-20T06:27:37.204Z,40.30
2018-11-20T06:30:37.018Z,41.03
2018-11-20T06:33:36.890Z,40.47
2018-11-20T06:36:36.926Z,39.20
2018-11-20T06:39:36.852Z,40.20
2018-11-20T06:42:30.137Z,38.33
2018-11-20T06:45:30.182Z,38.17
2018-11-20T06:48:19.263Z,37.43
2018-11-20T06:51:18.914Z,37.53
2018-11-20T06:54:24.523Z,36.47
2018-11-20T06:57:24.505Z,36.97
2018-11-20T07:00:24.454Z,36.77
2018-11-20T07:03:24.650Z,34.83
2018-11-20T07:06:24.550Z,35.73
2018-11-20T07:09:20.747Z,34.73
2018-11-20T07:12:20.220Z,35.07
2018-11-20T07:15:20.523Z,33.93
2018-11-20T07:18:19.947Z,33.20
2018-11-20T07:21:19.389Z,33.50
2018-11-20T07:24:19.481Z,32.97
2018-11-20T07:27:19.772Z,32.73
2018-11-20T07:30:19.803Z,32.70
2018-11-20T07:33:15.936Z,31.50
2018-11-20T07:36:15.537Z,32.10
2018-11-20T07:39:17.998Z,32.03
2018-11-20T07:42:18.245Z,31.43
2018-11-20T07:45:17.787Z,31.47
2018-11-20T07:48:17.695Z,29.53
2018-11-20T07:51:18.035Z,29.97
2018-11-20T07:54:20.643Z,29.30
2018-11-20T07:57:20.720Z,30.43
2018-11-20T08:00:20.622Z,28.43
2018-11-20T08:03:20.220Z,28.03
2018-11-20T08:06:20.018Z,28.27
2018-11-20T08:09:13.100Z,27.97
2018-11-20T08:12:12.714Z,27.70
2018-11-20T08:15:12.383Z,27.73
2018-11-20T08:18:17.911Z,27.97
2018-11-20T08:21:09.366Z,26.87
2018-11-20T08:24:09.206Z,26.60
2018-11-20T08:27:09.074Z,26.63
2018-11-20T08:30:08.945Z,29.67
2018-11-20T08:33:09.075Z,30.87
2018-11-20T08:36:09.215Z,61.37
2018-11-20T08:39:14.538Z,66.23
2018-11-20T08:42:14.148Z,70.03
2018-11-20T08:45:21.502Z,65.50
2018-11-20T08:48:28.987Z,62.40
2018-11-20T08:51:36.157Z,61.23
2018-11-20T08:54:43.813Z,59.43
2018-11-20T08:57:51.187Z,58.93
2018-11-20T09:04:12.034Z,52.10
2018-11-20T09:07:19.461Z,51.63
2018-11-20T09:10:26.876Z,53.00
2018-11-20T09:13:34.207Z,51.10
2018-11-20T09:16:41.914Z,51.87
2018-11-20T09:19:40.128Z,52.07
2018-11-20T09:22:47.797Z,63.50
2018-11-20T09:25:55.130Z,72.67
2018-11-20T09:29:02.468Z,73.83
2018-11-20T09:32:10.075Z,67.03
2018-11-20T09:35:17.547Z,66.00
2018-11-20T09:38:24.914Z,67.70
2018-11-20T09:41:32.431Z,69.83
2018-11-20T09:44:58.724Z,71.13
2018-11-20T09:48:06.119Z,70.07
2018-11-20T09:51:13.428Z,93.27
2018-11-20T09:54:20.767Z,107.53
2018-11-20T09:57:18.273Z,102.80
2018-11-20T10:00:26.094Z,87.63
2018-11-20T10:03:33.759Z,85.57
2018-11-20T10:06:41.115Z,85.43
2018-11-20T10:09:48.430Z,84.43
2018-11-20T10:12:55.740Z,79.20
2018-11-20T10:16:03.099Z,81.20
2018-11-20T10:19:10.773Z,74.17
2018-11-20T10:22:18.162Z,80.73
2018-11-20T10:25:25.601Z,96.43
2018-11-20T10:28:32.910Z,119.17
2018-11-20T10:31:40.244Z,118.23
2018-11-20T10:34:47.610Z,113.50
2018-11-20T10:37:54.933Z,109.53
2018-11-20T10:41:02.248Z,103.23
2018-11-20T10:44:09.617Z,102.27
2018-11-20T10:47:16.912Z,97.87
2018-11-20T10:50:24.518Z,96.27
2018-11-20T10:53:31.907Z,97.07
2018-11-20T10:56:39.200Z,98.90
2018-11-20T10:59:46.597Z,108.23
2018-11-20T11:02:53.912Z,98.97
2018-11-20T11:06:01.272Z,97.93
2018-11-20T11:09:08.612Z,92.70
2018-11-20T11:12:16.082Z,81.57
2018-11-20T11:15:23.363Z,65.03
2018-11-20T11:18:30.845Z,56.60
2018-11-20T11:21:38.039Z,53.23
2018-11-20T11:24:45.628Z,51.73
2018-11-20T11:27:52.940Z,46.60
2018-11-20T11:31:00.604Z,43.00
2018-11-20T11:34:15.668Z,40.47
2018-11-20T11:37:23.027Z,39.93
2018-11-20T11:40:30.331Z,36.60
2018-11-20T11:43:37.636Z,35.50
2018-11-20T11:46:44.925Z,33.87
2018-11-20T11:49:52.264Z,33.70
2018-11-20T11:52:51.281Z,31.10
2018-11-20T11:59:06.739Z,29.57
2018-11-20T12:05:20.612Z,28.33
2018-11-20T12:08:27.924Z,28.13
2018-11-20T12:11:35.292Z,27.13
2018-11-20T12:14:42.602Z,26.63
2018-11-20T12:17:49.959Z,25.30
2018-11-20T12:20:57.344Z,25.73
2018-11-20T12:23:53.755Z,27.37
2018-11-20T12:27:02.658Z,29.93
2018-11-20T12:30:08.396Z,35.37
2018-11-20T12:33:13.496Z,39.63
2018-11-20T12:36:21.461Z,70.50
2018-11-20T12:39:28.981Z,60.97
2018-11-20T12:42:36.278Z,50.37
2018-11-20T12:46:02.541Z,46.10
2018-11-20T12:49:09.908Z,43.93
2018-11-20T12:52:17.215Z,43.90
2018-11-20T12:55:25.249Z,41.43
2018-11-20T12:58:34.060Z,40.50
2018-11-20T13:04:50.889Z,36.90
2018-11-20T13:07:58.179Z,36.70
2018-11-20T13:11:05.532Z,37.57
2018-11-20T13:14:12.848Z,34.40
2018-11-20T13:17:20.144Z,33.23
2018-11-20T13:20:29.494Z,34.37
2018-11-20T13:23:34.897Z,34.23
2018-11-20T13:26:42.218Z,38.33
2018-11-20T13:29:49.588Z,38.93
2018-11-20T13:32:56.963Z,36.27
2018-11-20T13:36:04.331Z,35.07
2018-11-20T13:39:11.880Z,33.27
2018-11-20T13:42:38.047Z,33.20
2018-11-20T13:45:35.433Z,32.77
2018-11-20T13:48:43.054Z,31.13
2018-11-20T13:51:51.798Z,30.27
2018-11-20T13:54:57.690Z,29.87
2018-11-20T13:58:05.020Z,30.77
2018-11-20T14:01:12.397Z,29.00
2018-11-20T14:04:19.769Z,29.33
2018-11-20T14:07:27.061Z,26.43
2018-11-20T14:10:24.414Z,27.87
2018-11-20T14:13:32.040Z,27.43
2018-11-20T14:16:39.406Z,27.13
2018-11-20T14:19:34.262Z,25.77
2018-11-20T14:22:30.061Z,25.77
2018-11-20T14:25:56.314Z,26.43
2018-11-20T14:29:03.718Z,24.70
2018-11-20T14:32:11.027Z,25.57
2018-11-20T14:35:18.338Z,32.00
2018-11-20T14:38:25.723Z,53.10
2018-11-20T14:41:33.036Z,55.10
2018-11-20T14:44:33.180Z,68.93
2018-11-20T14:47:33.291Z,63.70
2018-11-20T14:50:36.218Z,62.70
2018-11-20T14:53:35.771Z,67.23
2018-11-20T14:56:33.390Z,58.67
2018-11-20T14:59:22.263Z,55.67
2018-11-20T15:02:28.326Z,54.73
2018-11-20T15:05:28.187Z,52.47
2018-11-20T15:11:45.100Z,48.70
2018-11-20T15:14:45.426Z,46.27
2018-11-20T15:17:41.359Z,44.77
2018-11-20T15:20:41.012Z,44.33
2018-11-20T15:23:29.420Z,42.47
2018-11-20T15:26:25.909Z,42.20
2018-11-20T15:29:28.639Z,39.70
2018-11-20T15:32:28.794Z,46.77
2018-11-20T15:35:30.897Z,48.33
2018-11-20T15:38:31.193Z,50.33
2018-11-20T15:41:31.366Z,51.70
2018-11-20T15:44:31.565Z,72.80
2018-11-20T15:47:31.798Z,66.93
2018-11-20T15:50:31.909Z,59.93
2018-11-20T15:53:33.106Z,65.20
2018-11-20T15:56:40.408Z,55.10
2018-11-20T15:59:47.962Z,52.17
2018-11-20T16:02:55.280Z,64.80
2018-11-20T16:06:02.937Z,64.83
2018-11-20T16:09:10.298Z,55.53
2018-11-20T16:12:17.615Z,54.37
2018-11-20T16:15:25.383Z,52.20
2018-11-20T16:18:33.070Z,50.53
2018-11-20T16:21:40.459Z,51.17
2018-11-20T16:24:47.769Z,68.03
2018-11-20T16:27:55.155Z,91.00
2018-11-20T16:31:03.110Z,87.87
2018-11-20T16:34:10.533Z,75.83
2018-11-20T16:37:17.852Z,70.40
2018-11-20T16:40:26.010Z,98.10
2018-11-20T16:43:25.821Z,88.20
2018-11-20T16:46:33.135Z,83.70
2018-11-20T16:49:40.758Z,90.23
2018-11-20T16:52:48.078Z,81.97
2018-11-20T16:55:55.394Z,79.20
2018-11-20T16:59:02.754Z,76.30
2018-11-20T17:02:10.073Z,73.43
2018-11-20T17:05:17.425Z,68.43
2018-11-20T17:08:24.862Z,67.80
2018-11-20T17:11:32.552Z,98.33
2018-11-20T17:14:39.930Z,126.60
2018-11-20T17:17:47.266Z,105.17
2018-11-20T17:20:54.573Z,105.50
2018-11-20T17:24:03.700Z,101.30
2018-11-20T17:27:09.278Z,98.10
2018-11-20T17:30:16.589Z,90.73
2018-11-20T17:33:23.904Z,88.13
2018-11-20T17:36:31.611Z,90.57
2018-11-20T17:39:39.283Z,108.97
2018-11-20T17:42:46.645Z,113.73
2018-11-20T17:45:53.965Z,110.30
2018-11-20T17:49:01.297Z,106.43
2018-11-20T17:52:09.043Z,104.40
2018-11-20T17:55:16.394Z,102.60
2018-11-20T17:58:24.084Z,96.87
2018-11-20T18:01:31.709Z,97.23
2018-11-20T18:07:46.500Z,100.13
2018-11-20T18:10:54.124Z,96.73
2018-11-20T18:14:01.835Z,94.23
2018-11-20T18:17:01.354Z,89.17
2018-11-20T18:20:08.730Z,86.10
2018-11-20T18:23:16.107Z,87.13
2018-11-20T18:26:23.399Z,81.63
2018-11-20T18:29:30.717Z,83.17
2018-11-20T18:32:38.098Z,82.87
2018-11-20T18:35:45.480Z,76.67
2018-11-20T18:38:53.216Z,134.50
2018-11-20T18:42:00.562Z,107.07
2018-11-20T18:45:08.387Z,94.63
2018-11-20T18:48:15.787Z,87.57
2018-11-20T18:51:23.150Z,85.40
2018-11-20T18:54:31.172Z,80.00
2018-11-20T18:57:38.563Z,90.33
2018-11-20T19:00:46.249Z,84.37
2018-11-20T19:03:53.910Z,81.60
2018-11-20T19:07:01.279Z,77.73
2018-11-20T19:10:08.658Z,72.60
2018-11-20T19:13:16.395Z,91.50
2018-11-20T19:16:24.142Z,77.30
2018-11-20T19:19:31.897Z,69.83
2018-11-20T19:22:39.245Z,70.83
2018-11-20T19:25:46.975Z,67.50
2018-11-20T19:28:54.662Z,64.50
2018-11-20T19:32:02.076Z,62.93
2018-11-20T19:35:09.704Z,58.20
2018-11-20T19:38:17.417Z,57.30
2018-11-20T19:41:23.015Z,59.80
2018-11-20T19:44:30.415Z,58.77
2018-11-20T19:47:38.079Z,53.73
2018-11-20T19:50:45.804Z,48.07
2018-11-20T19:53:53.248Z,49.47
2018-11-20T19:57:00.567Z,48.83
2018-11-20T20:00:07.978Z,54.23
2018-11-20T20:03:15.342Z,64.73
2018-11-20T20:06:22.975Z,63.97
2018-11-20T20:09:30.944Z,55.20
2018-11-20T20:12:30.964Z,52.17
2018-11-20T20:15:31.053Z,49.90
2018-11-20T20:18:31.158Z,48.73
2018-11-20T20:21:26.249Z,48.27
2018-11-20T20:24:25.921Z,45.50
2018-11-20T20:27:25.978Z,45.33
2018-11-20T20:30:26.139Z,43.13
2018-11-20T20:33:28.685Z,42.80
2018-11-20T20:36:28.408Z,50.43
2018-11-20T20:39:27.986Z,74.97
2018-11-20T20:42:28.154Z,105.47
2018-11-20T20:45:31.267Z,69.53
2018-11-20T20:48:25.973Z,71.67
2018-11-20T20:51:25.455Z,70.43
2018-11-20T20:54:25.106Z,73.90
2018-11-20T21:00:35.956Z,64.10
2018-11-20T21:03:28.614Z,66.97
2018-11-20T21:06:18.827Z,63.40
2018-11-20T21:09:19.020Z,63.37
2018-11-20T21:12:18.647Z,62.87
2018-11-20T21:15:20.952Z,65.93
2018-11-20T21:18:25.303Z,63.87
2018-11-20T21:21:25.636Z,60.33
2018-11-20T21:24:25.339Z,62.57
2018-11-20T21:27:25.295Z,62.87
2018-11-20T21:30:31.073Z,64.33
2018-11-20T21:33:30.567Z,66.77
2018-11-20T21:36:36.226Z,67.77
2018-11-20T21:39:36.067Z,69.10
2018-11-20T21:42:35.784Z,76.77
2018-11-20T21:45:35.650Z,76.10
2018-11-20T21:48:24.252Z,74.77
2018-11-20T21:51:23.885Z,73.67
2018-11-20T21:54:17.072Z,81.07
2018-11-20T21:57:17.088Z,95.00
2018-11-20T22:00:17.107Z,122.93
2018-11-20T22:03:16.698Z,110.83
2018-11-20T22:06:16.846Z,107.43
2018-11-20T22:09:16.737Z,117.63
2018-11-20T22:12:16.259Z,130.43
2018-11-20T22:15:16.126Z,149.47
2018-11-20T22:18:16.021Z,154.10
2018-11-20T22:21:15.411Z,157.53
2018-11-20T22:24:15.477Z,144.97
2018-11-20T22:27:14.976Z,178.50
2018-11-20T22:30:14.969Z,146.40
2018-11-20T22:33:15.331Z,159.27
2018-11-20T22:36:15.412Z,180.30
2018-11-20T22:39:17.772Z,182.50
2018-11-20T22:42:17.793Z,181.40
2018-11-20T22:45:10.623Z,178.50
2018-11-20T22:48:10.039Z,173.97
2018-11-20T22:51:09.331Z,182.37
2018-11-20T22:54:11.617Z,213.03
2018-11-20T22:57:11.615Z,200.87
2018-11-20T23:00:11.581Z,203.67
2018-11-20T23:03:11.246Z,199.80
2018-11-20T23:06:14.114Z,195.03
2018-11-20T23:08:54.851Z,191.07
2018-11-20T23:11:35.560Z,192.63
2018-11-20T23:14:16.240Z,184.53
2018-11-20T23:16:57.637Z,185.90
2018-11-20T23:19:38.645Z,179.53
2018-11-20T23:22:19.406Z,179.00
2018-11-20T23:25:00.540Z,176.23
2018-11-20T23:27:41.784Z,177.37
2018-11-20T23:30:23.338Z,169.67
2018-11-20T23:33:04.024Z,165.87
2018-11-20T23:35:45.466Z,168.83
2018-11-20T23:38:26.827Z,165.63
2018-11-20T23:41:08.228Z,165.77
2018-11-20T23:43:49.371Z,181.57
2018-11-20T23:46:30.373Z,253.17
2018-11-20T23:49:15.251Z,214.57
2018-11-20T23:51:52.251Z,225.03
2018-11-20T23:54:33.126Z,217.60
2018-11-20T23:57:14.524Z,214.47
2018-11-20T23:59:55.756Z,209.20
